Time,TemperatureF,DewpointF,PressureIn,WindDirection,WindDirectionDegrees,WindSpeedMPH,WindSpeedGustMPH,Humidity,HourlyPrecipIn,Conditions,Clouds,dailyrainin,SolarRadiationWatts/m^2,SoftwareType,DateUTC
2013-04-20 00:01:00,70.5,66.8,29.92,NNE,32,6.9,6.9,88,0.05,RA,,0.01,0.0,WeatherDisplay:10.37,2013-04-20 04:01:00,
2013-04-20 00:02:00,70.2,66.8,29.92,NNE,32,4.6,4.6,89,0.06,-RA,,0.01,0.0,WeatherDisplay:10.37,2013-04-20 04:02:00,
2013-04-20 00:07:00,69.0,65.6,29.92,NNE,30,5.8,5.8,89,0.07,-RA,,0.02,0.0,WeatherDisplay:10.37,2013-04-20 04:07:00,
2013-04-20 00:12:00,68.1,65.1,29.92,NNE,31,4.6,4.6,90,0.07,-RA,,0.02,0.0,WeatherDisplay:10.37,2013-04-20 04:12:00,
2013-04-20 00:17:00,67.4,64.7,29.93,NNE,32,4.6,4.6,91,0.08,-RA,,0.03,0.0,WeatherDisplay:10.37,2013-04-20 04:17:00,
2013-04-20 00:22:00,67.0,64.3,29.93,NNE,32,4.6,4.6,91,0.08,-RA,,0.03,0.0,WeatherDisplay:10.37,2013-04-20 04:22:00,
2013-04-20 00:27:00,66.9,64.5,29.93,NNE,15,0.0,0.0,92,0.08,-RA,,0.03,0.0,WeatherDisplay:10.37,2013-04-20 04:27:00,
2013-04-20 00:32:00,66.9,64.5,29.95,NNE,15,1.4,0.0,92,0.10,-RA,,0.05,0.0,WeatherDisplay:10.37,2013-04-20 04:32:00,
2013-04-20 00:37:00,66.3,63.9,29.95,NNE,32,8.1,8.1,92,0.12,-RA,,0.07,0.0,WeatherDisplay:10.37,2013-04-20 04:37:00,
2013-04-20 00:42:00,65.7,63.3,29.95,NNE,13,8.1,8.1,92,0.12,-RA,,0.08,0.0,WeatherDisplay:10.37,2013-04-20 04:42:00,
2013-04-20 00:47:00,65.0,62.6,29.96,North,360,5.8,5.8,92,0.12,-RA,,0.08,0.0,WeatherDisplay:10.37,2013-04-20 04:47:00,
2013-04-20 00:52:00,64.2,61.8,29.96,North,360,4.6,4.6,92,0.12,-RA,,0.08,0.0,WeatherDisplay:10.37,2013-04-20 04:52:00,
2013-04-20 00:57:00,63.9,61.5,29.96,NNE,13,8.1,8.1,92,0.12,-RA,,0.08,0.0,WeatherDisplay:10.37,2013-04-20 04:57:00,
2013-04-20 01:02:00,63.7,61.3,29.95,NNE,13,0.0,0.0,92,0.07,-RA,,0.08,0.0,WeatherDisplay:10.37,2013-04-20 05:02:00,
2013-04-20 01:07:00,63.8,61.7,29.95,NNE,13,4.6,4.6,93,0.06,-RA,,0.08,0.0,WeatherDisplay:10.37,2013-04-20 05:07:00,
2013-04-20 01:12:00,63.6,61.5,29.95,NNE,13,4.6,4.6,93,0.06,-RA,,0.08,0.0,WeatherDisplay:10.37,2013-04-20 05:12:00,
2013-04-20 01:17:00,63.5,61.4,29.96,NNE,14,5.8,5.8,93,0.05,-RA,,0.08,0.0,WeatherDisplay:10.37,2013-04-20 05:17:00,
2013-04-20 01:22:00,63.1,61.0,29.96,NNE,32,2.8,2.8,93,0.06,-RA,,0.09,0.0,WeatherDisplay:10.37,2013-04-20 05:22:00,
2013-04-20 01:27:00,62.8,60.7,29.96,North,360,1.1,1.1,93,0.06,-RA,,0.09,0.0,WeatherDisplay:10.37,2013-04-20 05:27:00,
2013-04-20 01:32:00,62.8,60.7,29.96,NNE,30,2.3,2.3,93,0.05,-RA,,0.10,0.0,WeatherDisplay:10.37,2013-04-20 05:32:00,
2013-04-20 01:37:00,62.8,60.7,29.96,NNE,30,2.8,2.8,93,0.03,-RA,,0.10,0.0,WeatherDisplay:10.37,2013-04-20 05:37:00,
2013-04-20 01:42:00,62.8,60.7,29.96,NNE,13,2.8,2.8,93,0.03,-RA,,0.11,0.0,WeatherDisplay:10.37,2013-04-20 05:42:00,
2013-04-20 01:47:00,62.3,60.2,29.95,NNE,13,2.3,2.5,93,0.03,-RA,,0.11,0.0,WeatherDisplay:10.37,2013-04-20 05:47:00,
2013-04-20 01:52:00,61.9,59.9,29.95,NNE,13,4.6,4.6,93,0.03,-RA,,0.12,0.0,WeatherDisplay:10.37,2013-04-20 05:52:00,
2013-04-20 01:57:00,61.5,59.5,29.95,NNE,13,2.8,2.8,93,0.04,-RA,,0.12,0.0,WeatherDisplay:10.37,2013-04-20 05:57:00,
2013-04-20 02:02:00,61.5,59.5,29.95,NNE,13,4.6,4.6,93,0.04,-RA,,0.12,0.0,WeatherDisplay:10.37,2013-04-20 06:02:00,
2013-04-20 02:07:00,61.3,59.3,29.95,NNE,13,0.0,0.0,93,0.04,-RA,,0.12,0.0,WeatherDisplay:10.37,2013-04-20 06:07:00,
2013-04-20 02:12:00,61.2,59.2,29.95,NNE,13,1.1,0.0,93,0.04,-RA,,0.12,0.0,WeatherDisplay:10.37,2013-04-20 06:12:00,
2013-04-20 02:17:00,61.4,59.4,29.94,NNE,13,1.1,1.1,93,0.04,-RA,,0.12,0.0,WeatherDisplay:10.37,2013-04-20 06:17:00,
2013-04-20 02:22:00,61.7,59.7,29.94,NNE,13,2.3,2.3,93,0.03,-RA,,0.12,0.0,WeatherDisplay:10.37,2013-04-20 06:22:00,
2013-04-20 02:27:00,61.6,59.6,29.94,NNE,13,0.0,0.0,93,0.03,-RA,,0.12,0.0,WeatherDisplay:10.37,2013-04-20 06:27:00,
2013-04-20 02:32:00,61.6,59.6,29.94,NNE,13,0.0,0.0,93,0.02,-RA,,0.12,0.0,WeatherDisplay:10.37,2013-04-20 06:32:00,
2013-04-20 02:37:00,61.5,59.5,29.94,NNE,13,0.0,0.0,93,0.02,-RA,,0.12,0.0,WeatherDisplay:10.37,2013-04-20 06:37:00,
2013-04-20 02:42:00,61.6,59.6,29.94,NNE,13,0.0,0.0,93,0.01,-RA,,0.12,0.0,WeatherDisplay:10.37,2013-04-20 06:42:00,
2013-04-20 02:47:00,61.7,60.0,29.93,NNE,13,0.0,0.0,94,0.01,-RA,,0.12,0.0,WeatherDisplay:10.37,2013-04-20 06:47:00,
2013-04-20 02:52:00,61.8,60.1,29.93,NNE,13,1.4,1.4,94,0.01,-RA,,0.12,0.0,WeatherDisplay:10.37,2013-04-20 06:52:00,
2013-04-20 02:57:00,62.0,60.3,29.93,NNE,13,4.6,4.6,94,0.00,-RA,,0.12,0.0,WeatherDisplay:10.37,2013-04-20 06:57:00,
2013-04-20 03:02:00,62.0,60.3,29.94,NNE,13,0.0,0.0,94,0.00,BKN,,0.12,0.0,WeatherDisplay:10.37,2013-04-20 07:02:00,
2013-04-20 03:07:00,62.0,60.3,29.94,NNE,13,0.0,0.0,94,0.00,BKN,,0.12,0.0,WeatherDisplay:10.37,2013-04-20 07:07:00,
2013-04-20 03:12:00,61.8,60.1,29.94,NNE,13,0.0,0.0,94,0.00,BKN,,0.12,0.0,WeatherDisplay:10.37,2013-04-20 07:12:00,
2013-04-20 03:17:00,61.9,60.2,29.95,NNE,13,2.3,2.3,94,0.00,BKN,,0.12,0.0,WeatherDisplay:10.37,2013-04-20 07:17:00,
2013-04-20 03:22:00,61.6,59.6,29.95,NNE,13,4.1,4.1,93,0.00,BKN,,0.12,0.0,WeatherDisplay:10.37,2013-04-20 07:22:00,
2013-04-20 03:27:00,61.2,59.2,29.95,NNE,30,4.6,4.6,93,0.01,RA,,0.13,0.0,WeatherDisplay:10.37,2013-04-20 07:27:00,
2013-04-20 03:32:00,60.3,58.3,29.96,NNE,29,13.8,13.8,93,0.01,RA,,0.13,0.0,WeatherDisplay:10.37,2013-04-20 07:32:00,
2013-04-20 03:37:00,60.1,58.1,29.96,NNE,31,5.8,5.8,93,0.01,BKN,,0.13,0.0,WeatherDisplay:10.37,2013-04-20 07:37:00,
2013-04-20 03:42:00,59.8,57.8,29.96,NNE,30,6.9,6.9,93,0.01,BKN,,0.13,0.0,WeatherDisplay:10.37,2013-04-20 07:42:00,
2013-04-20 03:47:00,59.8,57.8,29.96,NNE,13,5.5,5.6,93,0.01,BKN,,0.13,0.0,WeatherDisplay:10.37,2013-04-20 07:47:00,
2013-04-20 03:52:00,59.6,57.6,29.96,NNE,29,5.8,5.8,93,0.01,BKN,,0.13,0.0,WeatherDisplay:10.37,2013-04-20 07:52:00,
2013-04-20 03:57:00,59.5,57.5,29.96,NNE,30,9.2,9.2,93,0.01,BKN,,0.13,0.0,WeatherDisplay:10.37,2013-04-20 07:57:00,
2013-04-20 04:04:00,59.3,57.0,29.96,NNE,16,5.8,5.8,92,0.01,BKN,,0.13,0.0,WeatherDisplay:10.37,2013-04-20 08:04:00,
2013-04-20 04:09:00,59.3,57.0,29.96,NNE,16,2.3,2.5,92,0.01,BKN,,0.13,0.0,WeatherDisplay:10.37,2013-04-20 08:09:00,
2013-04-20 04:14:00,59.3,57.0,29.96,NNE,29,11.5,11.5,92,0.01,BKN,,0.13,0.0,WeatherDisplay:10.37,2013-04-20 08:14:00,
2013-04-20 04:19:00,59.2,57.2,29.96,NNE,32,5.8,5.8,93,0.01,OVC,,0.13,0.0,WeatherDisplay:10.37,2013-04-20 08:19:00,
2013-04-20 04:24:00,59.1,56.8,29.96,NNE,30,2.8,2.9,92,0.01,OVC,,0.13,0.0,WeatherDisplay:10.37,2013-04-20 08:24:00,
2013-04-20 04:29:00,59.1,56.8,29.96,NNE,31,4.6,4.6,92,0.00,OVC,,0.13,0.0,WeatherDisplay:10.37,2013-04-20 08:29:00,
2013-04-20 04:35:00,59.0,56.7,29.96,NNE,15,4.6,5.7,92,0.00,RA,,0.13,0.0,WeatherDisplay:10.37,2013-04-20 08:35:00,
2013-04-20 04:40:00,59.0,56.7,29.96,NNE,32,2.3,2.5,92,0.02,RA,,0.15,0.0,WeatherDisplay:10.37,2013-04-20 08:40:00,
2013-04-20 04:45:00,58.9,56.6,29.96,NNE,13,5.8,5.8,92,0.02,RA,,0.15,0.0,WeatherDisplay:10.37,2013-04-20 08:45:00,
2013-04-20 04:50:00,58.6,56.3,29.96,NNE,30,4.6,4.6,92,0.03,RA,,0.16,0.0,WeatherDisplay:10.37,2013-04-20 08:50:00,
2013-04-20 04:55:00,58.3,56.3,29.96,NNE,29,4.6,4.6,93,0.04,RA,,0.18,0.0,WeatherDisplay:10.37,2013-04-20 08:55:00,
2013-04-20 05:00:00,58.0,56.0,29.98,NNE,14,2.8,2.8,93,0.07,RA,,0.21,0.0,WeatherDisplay:10.37,2013-04-20 09:00:00,
2013-04-20 05:05:00,58.0,56.0,29.98,NNE,14,4.6,4.6,93,0.10,-RA,,0.23,0.0,WeatherDisplay:10.37,2013-04-20 09:05:00,
2013-04-20 05:10:00,58.0,56.0,29.98,NNE,32,2.3,2.3,93,0.11,-RA,,0.25,0.0,WeatherDisplay:10.37,2013-04-20 09:10:00,
2013-04-20 05:15:00,57.8,55.8,29.96,NNE,32,1.1,0.0,93,0.12,-RA,,0.25,0.0,WeatherDisplay:10.37,2013-04-20 09:15:00,
2013-04-20 05:20:00,57.7,55.7,29.96,NNE,32,0.0,0.0,93,0.13,-RA,,0.26,0.0,WeatherDisplay:10.37,2013-04-20 09:20:00,
2013-04-20 05:25:00,57.8,55.8,29.96,NNE,32,0.0,0.0,93,0.13,-RA,,0.26,0.0,WeatherDisplay:10.37,2013-04-20 09:25:00,
2013-04-20 05:30:00,57.9,56.2,29.97,NNE,32,0.0,0.0,94,0.13,-RA,,0.26,0.0,WeatherDisplay:10.37,2013-04-20 09:30:00,
2013-04-20 05:36:00,57.9,56.2,29.97,NNE,32,5.8,5.8,94,0.13,-RA,,0.26,0.0,WeatherDisplay:10.37,2013-04-20 09:36:00,
2013-04-20 05:41:00,57.8,55.8,29.97,NNE,31,2.3,4.0,93,0.13,-RA,,0.27,0.0,WeatherDisplay:10.37,2013-04-20 09:41:00,
2013-04-20 05:46:00,57.4,55.7,29.98,NNE,29,5.8,5.8,94,0.13,-RA,,0.28,0.0,WeatherDisplay:10.37,2013-04-20 09:46:00,
2013-04-20 05:51:00,57.2,55.2,29.98,NNE,27,2.8,2.8,93,0.12,-RA,,0.28,0.0,WeatherDisplay:10.37,2013-04-20 09:51:00,
2013-04-20 05:56:00,57.2,55.5,29.98,NNE,28,4.6,4.6,94,0.11,-RA,,0.28,0.0,WeatherDisplay:10.37,2013-04-20 09:56:00,
2013-04-20 06:01:00,57.4,55.7,29.99,NNE,28,2.3,2.3,94,0.08,-RA,,0.28,0.0,WeatherDisplay:10.37,2013-04-20 10:01:00,
2013-04-20 06:06:00,57.4,55.7,29.99,NNE,32,6.9,6.9,94,0.05,-RA,,0.28,0.0,WeatherDisplay:10.37,2013-04-20 10:06:00,
2013-04-20 06:11:00,57.3,55.6,29.99,NNE,32,4.6,4.7,94,0.04,-RA,,0.28,0.0,WeatherDisplay:10.37,2013-04-20 10:11:00,
2013-04-20 06:16:00,56.7,54.7,30.00,NNE,32,4.6,4.6,93,0.03,-RA,,0.28,0.0,WeatherDisplay:10.37,2013-04-20 10:16:00,
2013-04-20 06:21:00,56.0,54.0,30.00,NNE,32,5.8,5.8,93,0.02,-RA,,0.28,0.0,WeatherDisplay:10.37,2013-04-20 10:21:00,
2013-04-20 06:26:00,55.5,53.5,30.00,NNE,31,5.8,5.8,93,0.02,-RA,,0.28,0.0,WeatherDisplay:10.37,2013-04-20 10:26:00,
2013-04-20 06:31:00,55.2,53.2,30.01,NNE,13,8.1,8.1,93,0.02,-RA,,0.28,0.0,WeatherDisplay:10.37,2013-04-20 10:31:00,
2013-04-20 06:36:00,55.2,53.5,30.01,NNE,13,6.9,6.9,94,0.02,-RA,,0.28,0.0,WeatherDisplay:10.37,2013-04-20 10:36:00,
2013-04-20 06:41:00,55.1,53.4,30.01,NNE,15,6.9,6.9,94,0.01,-RA,,0.28,0.0,WeatherDisplay:10.37,2013-04-20 10:41:00,
2013-04-20 06:46:00,54.6,52.6,30.01,NNE,13,5.8,5.8,93,0.01, +RA,,0.29,0.0,WeatherDisplay:10.37,2013-04-20 10:46:00,
2013-04-20 06:51:00,54.5,52.8,30.01,North,360,4.6,4.6,94,0.01, +RA,,0.30,0.0,WeatherDisplay:10.37,2013-04-20 10:51:00,
2013-04-20 06:56:00,54.3,52.3,30.01,NNE,32,2.3,2.3,93,0.03, +RA,,0.31,0.0,WeatherDisplay:10.37,2013-04-20 10:56:00,
2013-04-20 07:01:00,54.0,52.3,30.00,NNE,32,1.1,1.1,94,0.05,RA,,0.33,0.0,WeatherDisplay:10.37,2013-04-20 11:01:00,
2013-04-20 07:06:00,54.3,52.6,30.00,NNE,32,0.0,0.0,94,0.06,RA,,0.34,0.0,WeatherDisplay:10.37,2013-04-20 11:06:00,
2013-04-20 07:11:00,54.0,52.3,30.00,NNE,32,2.3,2.3,94,0.06,RA,,0.34,5.0,WeatherDisplay:10.37,2013-04-20 11:11:00,
2013-04-20 07:16:00,53.9,52.2,30.02,NNE,32,4.6,4.6,94,0.06,-RA,,0.34,0.0,WeatherDisplay:10.37,2013-04-20 11:16:00,
2013-04-20 07:21:00,53.9,52.2,30.02,NNE,32,4.1,4.1,94,0.06,-RA,,0.34,0.0,WeatherDisplay:10.37,2013-04-20 11:21:00,
2013-04-20 07:26:00,53.7,52.0,30.02,NNE,32,4.6,4.6,94,0.06,-RA,,0.34,5.0,WeatherDisplay:10.37,2013-04-20 11:26:00,
2013-04-20 07:31:00,53.5,51.8,30.02,NNE,32,9.2,9.2,94,0.06,-RA,,0.34,7.0,WeatherDisplay:10.37,2013-04-20 11:31:00,
2013-04-20 07:36:00,53.2,51.5,30.02,NNE,32,1.1,1.1,94,0.06,-RA,,0.34,14.0,WeatherDisplay:10.37,2013-04-20 11:36:00,
2013-04-20 07:41:00,53.6,51.9,30.02,NNE,13,2.3,2.3,94,0.06,-RA,,0.34,30.0,WeatherDisplay:10.37,2013-04-20 11:41:00,
2013-04-20 07:46:00,53.6,51.9,30.02,NNE,13,1.4,1.4,94,0.05,-RA,,0.34,28.0,WeatherDisplay:10.37,2013-04-20 11:46:00,
2013-04-20 07:51:00,53.9,52.2,30.02,NNE,13,5.8,5.8,94,0.05,-RA,,0.34,28.0,WeatherDisplay:10.37,2013-04-20 11:51:00,
2013-04-20 07:56:00,53.6,51.9,30.02,NNE,33,2.3,2.3,94,0.03,-RA,,0.34,35.0,WeatherDisplay:10.37,2013-04-20 11:56:00,
2013-04-20 08:01:00,54.1,52.4,30.03,NNE,33,4.6,4.6,94,0.01,-RA,,0.34,23.0,WeatherDisplay:10.37,2013-04-20 12:01:00,
2013-04-20 08:06:00,53.9,52.2,30.03,NNE,33,4.6,4.6,94,0.00,-RA,,0.34,40.0,WeatherDisplay:10.37,2013-04-20 12:06:00,
2013-04-20 08:11:00,53.7,52.0,30.03,NNE,32,2.3,2.3,94,0.00,-RA,,0.34,67.0,WeatherDisplay:10.37,2013-04-20 12:11:00,
2013-04-20 08:16:00,53.8,52.1,30.04,NNE,13,6.9,6.9,94,0.00,-RA,,0.34,62.0,WeatherDisplay:10.37,2013-04-20 12:16:00,
2013-04-20 08:21:00,53.5,51.8,30.04,North,360,2.3,0.0,94,0.00,-RA,,0.34,54.0,WeatherDisplay:10.37,2013-04-20 12:21:00,
2013-04-20 08:26:00,53.6,51.9,30.04,North,360,4.6,4.6,94,0.00,-RA,,0.34,53.0,WeatherDisplay:10.37,2013-04-20 12:26:00,
2013-04-20 08:31:00,53.6,51.9,30.06,North,360,5.8,5.8,94,0.00,-RA,,0.34,62.0,WeatherDisplay:10.37,2013-04-20 12:31:00,
2013-04-20 08:36:00,53.5,51.8,30.06,NNE,13,4.6,4.6,94,0.00,-RA,,0.34,60.0,WeatherDisplay:10.37,2013-04-20 12:36:00,
2013-04-20 08:41:00,53.5,51.8,30.06,NNE,14,8.1,8.1,94,0.00,-RA,,0.34,39.0,WeatherDisplay:10.37,2013-04-20 12:41:00,
2013-04-20 08:46:00,53.5,51.8,30.06,NNE,32,9.6,9.6,94,0.00,-RA,,0.34,44.0,WeatherDisplay:10.37,2013-04-20 12:46:00,
2013-04-20 08:51:00,53.5,51.8,30.06,NNE,33,6.9,6.9,94,0.00,-RA,,0.34,53.0,WeatherDisplay:10.37,2013-04-20 12:51:00,
2013-04-20 08:56:00,53.3,51.6,30.06,NNE,13,4.6,4.6,94,0.00,-RA,,0.34,47.0,WeatherDisplay:10.37,2013-04-20 12:56:00,
2013-04-20 09:01:00,53.1,51.1,30.07,NNE,13,5.8,5.8,93,0.00,-RA,,0.34,49.0,WeatherDisplay:10.37,2013-04-20 13:01:00,
2013-04-20 09:06:00,52.6,50.6,30.07,NNE,33,5.8,5.8,93,0.00,-RA,,0.34,51.0,WeatherDisplay:10.37,2013-04-20 13:06:00,
2013-04-20 09:11:00,52.4,50.4,30.07,NNE,30,1.1,1.1,93,0.00,-RA,,0.34,54.0,WeatherDisplay:10.37,2013-04-20 13:11:00,
2013-04-20 09:16:00,52.4,50.1,30.07,NNE,33,8.3,8.3,92,0.00,-RA,,0.34,47.0,WeatherDisplay:10.37,2013-04-20 13:16:00,
2013-04-20 09:21:00,52.4,50.1,30.07,NNE,33,6.9,6.9,92,0.00,-RA,,0.34,26.0,WeatherDisplay:10.37,2013-04-20 13:21:00,
2013-04-20 09:26:00,52.2,49.9,30.07,NNE,33,1.1,0.0,92,0.00,-RA,,0.34,21.0,WeatherDisplay:10.37,2013-04-20 13:26:00,
2013-04-20 09:31:00,52.4,50.1,30.07,NNE,33,0.0,0.0,92,0.00,-RA,,0.34,18.0,WeatherDisplay:10.37,2013-04-20 13:31:00,
2013-04-20 09:36:00,52.3,50.0,30.07,NNE,33,2.8,3.1,92,0.01,-RA,,0.35,39.0,WeatherDisplay:10.37,2013-04-20 13:36:00,
2013-04-20 09:41:00,52.1,49.8,30.07,NNE,33,2.3,2.5,92,0.02,-RA,,0.36,63.0,WeatherDisplay:10.37,2013-04-20 13:41:00,
2013-04-20 09:46:00,52.0,50.0,30.08,NNE,33,2.3,2.3,93,0.02,RA,,0.36,83.0,WeatherDisplay:10.37,2013-04-20 13:46:00,
2013-04-20 09:51:00,52.0,50.0,30.08,NNE,33,2.3,2.3,93,0.03,RA,,0.37,90.0,WeatherDisplay:10.37,2013-04-20 13:51:00,
2013-04-20 09:56:00,51.8,49.8,30.08,NNE,32,6.9,6.9,93,0.04,RA,,0.38,69.0,WeatherDisplay:10.37,2013-04-20 13:56:00,
2013-04-20 10:01:00,51.6,49.6,30.08,NNE,32,4.6,4.6,93,0.04,-RA,,0.38,114.0,WeatherDisplay:10.37,2013-04-20 14:01:00,
2013-04-20 10:06:00,51.8,49.8,30.08,North,360,5.5,5.5,93,0.04,-RA,,0.38,109.0,WeatherDisplay:10.37,2013-04-20 14:06:00,
2013-04-20 10:11:00,51.8,49.8,30.08,North,360,4.6,4.6,93,0.04,-RA,,0.38,107.0,WeatherDisplay:10.37,2013-04-20 14:11:00,
2013-04-20 10:16:00,51.8,49.8,30.08,NNE,13,4.6,4.6,93,0.04,-RA,,0.38,77.0,WeatherDisplay:10.37,2013-04-20 14:16:00,
2013-04-20 10:21:00,51.7,49.7,30.08,North,360,1.4,1.4,93,0.04,-RA,,0.39,56.0,WeatherDisplay:10.37,2013-04-20 14:21:00,
2013-04-20 10:26:00,51.8,49.8,30.08,NNE,32,5.8,5.8,93,0.05,-RA,,0.39,70.0,WeatherDisplay:10.37,2013-04-20 14:26:00,
2013-04-20 10:31:00,51.5,49.5,30.09,NNE,32,2.3,2.3,93,0.05,-RA,,0.39,104.0,WeatherDisplay:10.37,2013-04-20 14:31:00,
2013-04-20 10:36:00,51.5,49.5,30.09,NNE,13,6.9,6.9,93,0.04,-RA,,0.39,100.0,WeatherDisplay:10.37,2013-04-20 14:36:00,
2013-04-20 10:41:00,51.7,49.7,30.09,NNE,13,2.3,2.4,93,0.03,-RA,,0.39,142.0,WeatherDisplay:10.37,2013-04-20 14:41:00,
2013-04-20 10:46:00,51.5,49.5,30.09,NNE,30,2.3,2.3,93,0.03,-RA,,0.39,155.0,WeatherDisplay:10.37,2013-04-20 14:46:00,
2013-04-20 10:51:00,51.9,49.9,30.09,NNE,30,2.8,2.8,93,0.02,-RA,,0.39,162.0,WeatherDisplay:10.37,2013-04-20 14:51:00,
2013-04-20 10:56:00,52.4,50.4,30.09,NNE,13,5.8,5.8,93,0.01,-RA,,0.39,163.0,WeatherDisplay:10.37,2013-04-20 14:56:00,
2013-04-20 11:01:00,52.6,50.6,30.07,NNE,13,6.9,6.9,93,0.01,-RA,,0.39,160.0,WeatherDisplay:10.37,2013-04-20 15:01:00,
2013-04-20 11:06:00,52.5,50.5,30.07,NNE,33,4.6,4.6,93,0.01,-RA,,0.39,146.0,WeatherDisplay:10.37,2013-04-20 15:06:00,
2013-04-20 11:12:00,52.7,50.4,30.07,NNE,13,4.1,8.7,92,0.01,-RA,,0.39,127.0,WeatherDisplay:10.37,2013-04-20 15:12:00,
2013-04-20 11:17:00,52.6,50.3,30.10,NNE,31,5.8,5.8,92,0.01,-RA,,0.40,105.0,WeatherDisplay:10.37,2013-04-20 15:17:00,
2013-04-20 11:22:00,52.4,50.4,30.10,NNE,33,5.8,6.6,93,0.02,-RA,,0.41,120.0,WeatherDisplay:10.37,2013-04-20 15:22:00,
2013-04-20 11:27:00,52.4,50.4,30.10,NNE,33,4.6,4.6,93,0.02,-RA,,0.41,146.0,WeatherDisplay:10.37,2013-04-20 15:27:00,
2013-04-20 11:32:00,52.7,50.7,30.09,NNE,33,4.6,4.6,93,0.02,OVC,,0.41,148.0,WeatherDisplay:10.37,2013-04-20 15:32:00,
2013-04-20 11:37:00,52.5,50.5,30.09,NNE,33,5.8,5.8,93,0.02,OVC,,0.41,132.0,WeatherDisplay:10.37,2013-04-20 15:37:00,
2013-04-20 11:42:00,52.3,50.3,30.09,NE,34,6.9,6.9,93,0.02,OVC,,0.41,118.0,WeatherDisplay:10.37,2013-04-20 15:42:00,
2013-04-20 11:47:00,52.6,50.6,30.08,NNE,33,5.8,5.8,93,0.02,-RA,,0.41,135.0,WeatherDisplay:10.37,2013-04-20 15:47:00,
2013-04-20 11:52:00,52.7,51.0,30.08,NNE,33,4.6,4.6,94,0.03,-RA,,0.42,104.0,WeatherDisplay:10.37,2013-04-20 15:52:00,
2013-04-20 11:57:00,52.4,50.4,30.08,NE,34,4.6,4.6,93,0.03,-RA,,0.42,84.0,WeatherDisplay:10.37,2013-04-20 15:57:00,
2013-04-20 12:02:00,52.6,50.6,30.09,NNE,15,4.6,4.6,93,0.03,-RA,,0.42,146.0,WeatherDisplay:10.37,2013-04-20 16:02:00,
2013-04-20 12:07:00,52.6,50.9,30.09,North,360,8.1,8.1,94,0.03,-RA,,0.42,167.0,WeatherDisplay:10.37,2013-04-20 16:07:00,
2013-04-20 12:12:00,53.0,51.3,30.09,North,360,2.3,2.3,94,0.03,-RA,,0.42,142.0,WeatherDisplay:10.37,2013-04-20 16:12:00,
2013-04-20 12:17:00,53.1,51.4,30.08,North,360,2.3,2.3,94,0.02,OVC,,0.42,142.0,WeatherDisplay:10.37,2013-04-20 16:17:00,
2013-04-20 12:22:00,53.3,51.6,30.08,NNE,33,6.9,6.9,94,0.01,OVC,,0.42,141.0,WeatherDisplay:10.37,2013-04-20 16:22:00,
2013-04-20 12:27:00,53.2,51.2,30.08,NE,34,4.6,4.6,93,0.01,OVC,,0.42,183.0,WeatherDisplay:10.37,2013-04-20 16:27:00,
2013-04-20 12:32:00,53.5,51.5,30.08,NE,34,0.0,0.0,93,0.01,OVC,,0.42,227.0,WeatherDisplay:10.37,2013-04-20 16:32:00,
2013-04-20 12:37:00,53.8,51.8,30.08,North,360,5.8,6.0,93,0.01,OVC,,0.42,202.0,WeatherDisplay:10.37,2013-04-20 16:37:00,
2013-04-20 12:42:00,53.9,51.9,30.08,NNE,33,4.6,4.6,93,0.01,OVC,,0.42,209.0,WeatherDisplay:10.37,2013-04-20 16:42:00,
2013-04-20 12:47:00,54.0,52.0,30.08,NNE,13,5.8,5.8,93,0.01,OVC,,0.42,216.0,WeatherDisplay:10.37,2013-04-20 16:47:00,
2013-04-20 12:52:00,54.1,51.8,30.08,NNE,13,4.6,4.6,92,0.00,OVC,,0.42,223.0,WeatherDisplay:10.37,2013-04-20 16:52:00,
2013-04-20 12:57:00,53.9,51.3,30.08,NNE,15,5.8,5.8,91,0.00,OVC,,0.42,244.0,WeatherDisplay:10.37,2013-04-20 16:57:00,
2013-04-20 13:02:00,54.4,51.8,30.08,NNE,17,4.1,4.1,91,0.00,OVC,,0.42,248.0,WeatherDisplay:10.37,2013-04-20 17:02:00,
2013-04-20 13:07:00,54.5,51.6,30.08,NNE,13,6.9,6.9,90,0.00,OVC,,0.42,253.0,WeatherDisplay:10.37,2013-04-20 17:07:00,
2013-04-20 13:12:00,54.9,52.3,30.08,NNE,15,1.1,0.0,91,0.00,OVC,,0.42,207.0,WeatherDisplay:10.37,2013-04-20 17:12:00,
2013-04-20 13:17:00,54.6,51.4,30.08,NNE,15,2.3,2.3,89,0.00,OVC,,0.42,214.0,WeatherDisplay:10.37,2013-04-20 17:17:00,
2013-04-20 13:22:00,54.7,51.5,30.08,NNE,15,1.4,1.4,89,0.00,OVC,,0.42,243.0,WeatherDisplay:10.37,2013-04-20 17:22:00,
2013-04-20 13:27:00,54.9,51.7,30.08,NNE,13,5.8,5.8,89,0.00,OVC,,0.42,206.0,WeatherDisplay:10.37,2013-04-20 17:27:00,
2013-04-20 13:32:00,54.8,51.6,30.08,NNE,13,2.3,2.3,89,0.00,OVC,,0.42,142.0,WeatherDisplay:10.37,2013-04-20 17:32:00,
2013-04-20 13:37:00,54.9,52.0,30.08,NNE,13,1.1,1.1,90,0.00,OVC,,0.42,105.0,WeatherDisplay:10.37,2013-04-20 17:37:00,
2013-04-20 13:42:00,54.5,51.3,30.08,NNE,16,4.6,4.6,89,0.00,OVC,,0.42,107.0,WeatherDisplay:10.37,2013-04-20 17:42:00,
2013-04-20 13:47:00,54.3,51.4,30.07,NNE,16,1.1,1.1,90,0.00,OVC,,0.42,130.0,WeatherDisplay:10.37,2013-04-20 17:47:00,
2013-04-20 13:52:00,54.6,51.7,30.07,NNE,16,0.0,0.0,90,0.00,OVC,,0.42,139.0,WeatherDisplay:10.37,2013-04-20 17:52:00,
2013-04-20 13:57:00,54.1,50.9,30.07,NNE,16,4.1,4.1,89,0.00,OVC,,0.42,125.0,WeatherDisplay:10.37,2013-04-20 17:57:00,
2013-04-20 14:02:00,54.8,51.9,30.07,NNE,16,2.3,2.3,90,0.00,-RA,,0.42,130.0,WeatherDisplay:10.37,2013-04-20 18:02:00,
2013-04-20 14:07:00,54.6,52.0,30.07,NNE,16,2.3,2.3,91,0.00,-RA,,0.42,156.0,WeatherDisplay:10.37,2013-04-20 18:07:00,
2013-04-20 14:12:00,54.6,52.0,30.07,NNE,16,1.1,1.1,91,0.01,-RA,,0.43,165.0,WeatherDisplay:10.37,2013-04-20 18:12:00,
2013-04-20 14:17:00,54.5,51.9,30.08,NNE,16,2.8,2.8,91,0.01,-RA,,0.43,178.0,WeatherDisplay:10.37,2013-04-20 18:17:00,
2013-04-20 14:22:00,54.8,52.2,30.08,NNE,13,1.1,1.1,91,0.01,-RA,,0.43,174.0,WeatherDisplay:10.37,2013-04-20 18:22:00,
2013-04-20 14:27:00,55.2,52.6,30.08,NNE,13,4.1,4.1,91,0.01,-RA,,0.43,171.0,WeatherDisplay:10.37,2013-04-20 18:27:00,
2013-04-20 14:32:00,55.4,52.5,30.07,NNE,33,4.6,4.6,90,0.01,-RA,,0.43,158.0,WeatherDisplay:10.37,2013-04-20 18:32:00,
2013-04-20 14:37:00,55.3,52.7,30.07,NNE,15,5.8,5.8,91,0.01,-RA,,0.43,172.0,WeatherDisplay:10.37,2013-04-20 18:37:00,
2013-04-20 14:42:00,55.3,52.4,30.07,NNE,15,5.8,5.8,90,0.01,-RA,,0.43,167.0,WeatherDisplay:10.37,2013-04-20 18:42:00,
2013-04-20 14:47:00,55.3,52.4,30.05,NNE,15,5.8,5.8,90,0.01,-RA,,0.43,165.0,WeatherDisplay:10.37,2013-04-20 18:47:00,
2013-04-20 14:52:00,55.3,52.7,30.05,NNE,15,4.1,4.2,91,0.01,-RA,,0.43,155.0,WeatherDisplay:10.37,2013-04-20 18:52:00,
2013-04-20 14:57:00,55.0,51.8,30.05,NNE,15,0.0,0.0,89,0.01,-RA,,0.43,121.0,WeatherDisplay:10.37,2013-04-20 18:57:00,
2013-04-20 15:02:00,54.9,52.0,30.08,NNE,15,0.0,0.3,90,0.01,OVC,,0.43,86.0,WeatherDisplay:10.37,2013-04-20 19:02:00,
2013-04-20 15:07:00,55.1,52.2,30.08,NNE,15,1.1,1.1,90,0.01,OVC,,0.43,137.0,WeatherDisplay:10.37,2013-04-20 19:07:00,
2013-04-20 15:12:00,55.5,52.9,30.08,NNE,15,4.1,5.1,91,0.00,OVC,,0.43,134.0,WeatherDisplay:10.37,2013-04-20 19:12:00,
2013-04-20 15:17:00,55.5,52.3,30.07,NNE,33,5.5,5.5,89,0.00,OVC,,0.43,120.0,WeatherDisplay:10.37,2013-04-20 19:17:00,
2013-04-20 15:22:00,55.4,52.2,30.07,NNE,13,4.6,4.6,89,0.00,OVC,,0.43,141.0,WeatherDisplay:10.37,2013-04-20 19:22:00,
2013-04-20 15:27:00,55.5,52.3,30.07,NNE,13,1.4,1.4,89,0.00,OVC,,0.43,176.0,WeatherDisplay:10.37,2013-04-20 19:27:00,
2013-04-20 15:32:00,55.7,52.8,30.06,NNE,13,1.1,0.0,90,0.00,OVC,,0.43,142.0,WeatherDisplay:10.37,2013-04-20 19:32:00,
2013-04-20 15:37:00,55.8,52.6,30.06,NNE,13,2.3,2.3,89,0.00,OVC,,0.43,155.0,WeatherDisplay:10.37,2013-04-20 19:37:00,
2013-04-20 15:42:00,55.8,52.3,30.06,NNE,27,1.4,1.4,88,0.00,OVC,,0.43,137.0,WeatherDisplay:10.37,2013-04-20 19:42:00,
2013-04-20 15:48:00,55.8,52.3,30.07,NNE,15,1.1,1.1,88,0.00,OVC,,0.43,134.0,WeatherDisplay:10.37,2013-04-20 19:48:00,
2013-04-20 15:53:00,56.2,52.7,30.07,NNE,15,2.3,2.3,88,0.00,OVC,,0.43,178.0,WeatherDisplay:10.37,2013-04-20 19:53:00,
2013-04-20 15:58:00,56.4,52.9,30.07,NNE,15,2.3,2.3,88,0.00,OVC,,0.43,204.0,WeatherDisplay:10.37,2013-04-20 19:58:00,
2013-04-20 16:03:00,56.3,53.1,30.07,NNE,15,2.3,2.3,89,0.00,OVC,,0.43,178.0,WeatherDisplay:10.37,2013-04-20 20:03:00,
2013-04-20 16:08:00,56.6,53.4,30.07,NNE,15,1.1,1.1,89,0.00,OVC,,0.43,218.0,WeatherDisplay:10.37,2013-04-20 20:08:00,
2013-04-20 16:13:00,56.7,53.2,30.07,NNE,15,4.6,4.6,88,0.00,OVC,,0.43,346.0,WeatherDisplay:10.37,2013-04-20 20:13:00,
2013-04-20 16:18:00,57.3,53.8,30.06,NNE,14,5.8,5.8,88,0.00,OVC,,0.43,404.0,WeatherDisplay:10.37,2013-04-20 20:18:00,
2013-04-20 16:23:00,57.3,52.8,30.06,NNE,32,4.6,4.6,85,0.00,OVC,,0.43,288.0,WeatherDisplay:10.37,2013-04-20 20:23:00,
2013-04-20 16:28:00,57.8,53.6,30.06,NNE,33,4.1,4.1,86,0.00,OVC,,0.43,318.0,WeatherDisplay:10.37,2013-04-20 20:28:00,
2013-04-20 16:33:00,58.2,54.3,30.06,NE,34,5.8,5.8,87,0.00,OVC,,0.43,420.0,WeatherDisplay:10.37,2013-04-20 20:33:00,
2013-04-20 16:38:00,59.1,54.9,30.06,NNE,15,8.1,8.1,86,0.00,OVC,,0.43,366.0,WeatherDisplay:10.37,2013-04-20 20:38:00,
2013-04-20 16:43:00,59.0,54.5,30.06,North,360,8.1,8.6,85,0.00,OVC,,0.43,243.0,WeatherDisplay:10.37,2013-04-20 20:43:00,
2013-04-20 16:48:00,58.4,53.6,30.06,NNE,33,5.8,5.8,84,0.00,OVC,,0.43,406.0,WeatherDisplay:10.37,2013-04-20 20:48:00,
2013-04-20 16:53:00,59.0,54.2,30.06,NNE,15,6.9,6.9,84,0.00,OVC,,0.43,313.0,WeatherDisplay:10.37,2013-04-20 20:53:00,
2013-04-20 16:58:00,59.0,54.5,30.06,North,360,4.6,4.6,85,0.00,OVC,,0.43,371.0,WeatherDisplay:10.37,2013-04-20 20:58:00,
2013-04-20 17:03:00,59.3,54.5,30.05,NNE,13,5.8,5.8,84,0.00,BKN,,0.43,353.0,WeatherDisplay:10.37,2013-04-20 21:03:00,
2013-04-20 17:08:00,59.4,54.6,30.05,NNE,33,6.9,6.9,84,0.00,BKN,,0.43,320.0,WeatherDisplay:10.37,2013-04-20 21:08:00,
2013-04-20 17:13:00,59.8,55.0,30.05,NNE,33,6.9,6.9,84,0.00,BKN,,0.43,323.0,WeatherDisplay:10.37,2013-04-20 21:13:00,
2013-04-20 17:18:00,60.0,54.5,30.05,NNE,15,5.8,5.8,82,0.00,BKN,,0.43,394.0,WeatherDisplay:10.37,2013-04-20 21:18:00,
2013-04-20 17:23:00,60.2,55.0,30.05,NNE,13,4.6,4.6,83,0.00,BKN,,0.43,288.0,WeatherDisplay:10.37,2013-04-20 21:23:00,
2013-04-20 17:28:00,60.7,55.5,30.05,NNE,15,4.6,6.4,83,0.00,BKN,,0.43,216.0,WeatherDisplay:10.37,2013-04-20 21:28:00,
2013-04-20 17:33:00,59.9,54.4,30.06,NNE,14,4.6,4.6,82,0.00,BKN,,0.43,146.0,WeatherDisplay:10.37,2013-04-20 21:33:00,
2013-04-20 17:38:00,59.4,53.9,30.06,NNE,15,12.7,12.7,82,0.00,BKN,,0.43,120.0,WeatherDisplay:10.37,2013-04-20 21:38:00,
2013-04-20 17:43:00,59.1,54.3,30.06,NE,34,6.9,6.9,84,0.00,BKN,,0.43,156.0,WeatherDisplay:10.37,2013-04-20 21:43:00,
2013-04-20 17:48:00,59.0,54.2,30.06,NNE,14,6.9,6.9,84,0.00,BKN,,0.43,123.0,WeatherDisplay:10.37,2013-04-20 21:48:00,
2013-04-20 17:53:00,59.2,54.4,30.06,NNE,13,9.2,9.2,84,0.00,BKN,,0.43,93.0,WeatherDisplay:10.37,2013-04-20 21:53:00,
2013-04-20 17:58:00,58.8,53.6,30.06,NNE,13,6.9,6.9,83,0.00,BKN,,0.43,141.0,WeatherDisplay:10.37,2013-04-20 21:58:00,
2013-04-20 18:03:00,59.0,54.2,30.05,NNE,15,5.8,9.6,84,0.00,BKN,,0.43,144.0,WeatherDisplay:10.37,2013-04-20 22:03:00,
2013-04-20 18:08:00,59.0,54.2,30.05,NNE,13,2.3,4.3,84,0.00,BKN,,0.43,137.0,WeatherDisplay:10.37,2013-04-20 22:08:00,
2013-04-20 18:13:00,59.1,53.9,30.05,NNE,14,6.9,6.9,83,0.00,BKN,,0.43,118.0,WeatherDisplay:10.37,2013-04-20 22:13:00,
2013-04-20 18:18:00,59.1,53.9,30.05,NNE,13,5.8,5.8,83,0.00,BKN,,0.43,109.0,WeatherDisplay:10.37,2013-04-20 22:18:00,
2013-04-20 18:23:00,59.1,54.3,30.05,NNE,17,5.8,5.8,84,0.00,BKN,,0.43,120.0,WeatherDisplay:10.37,2013-04-20 22:23:00,
2013-04-20 18:28:00,59.2,54.0,30.05,NNE,15,6.9,6.9,83,0.00,BKN,,0.43,125.0,WeatherDisplay:10.37,2013-04-20 22:28:00,
2013-04-20 18:33:00,59.4,54.6,30.04,NNE,14,8.1,8.1,84,0.00,BKN,,0.43,134.0,WeatherDisplay:10.37,2013-04-20 22:33:00,
2013-04-20 18:38:00,59.4,54.2,30.04,NNE,15,6.9,6.9,83,0.00,BKN,,0.43,120.0,WeatherDisplay:10.37,2013-04-20 22:38:00,
2013-04-20 18:43:00,59.4,54.2,30.04,NNE,15,11.5,11.5,83,0.00,BKN,,0.43,135.0,WeatherDisplay:10.37,2013-04-20 22:43:00,
2013-04-20 18:48:00,59.7,54.9,30.05,NNE,14,4.6,4.6,84,0.00,BKN,,0.43,139.0,WeatherDisplay:10.37,2013-04-20 22:48:00,
2013-04-20 18:53:00,60.0,54.8,30.05,NNE,13,8.3,8.5,83,0.00,BKN,,0.43,139.0,WeatherDisplay:10.37,2013-04-20 22:53:00,
2013-04-20 18:58:00,60.2,55.3,30.05,NNE,15,4.6,4.6,84,0.00,BKN,,0.43,97.0,WeatherDisplay:10.37,2013-04-20 22:58:00,
2013-04-20 19:03:00,60.0,54.5,30.05,NNE,14,12.7,12.7,82,0.00,BKN,,0.43,86.0,WeatherDisplay:10.37,2013-04-20 23:03:00,
2013-04-20 19:08:00,59.8,54.3,30.05,NE,34,11.5,11.5,82,0.00,BKN,,0.43,46.0,WeatherDisplay:10.37,2013-04-20 23:08:00,
2013-04-20 19:14:00,59.5,54.3,30.05,NNE,15,4.6,6.0,83,0.00,BKN,,0.43,56.0,WeatherDisplay:10.37,2013-04-20 23:14:00,
2013-04-20 19:19:00,59.3,54.1,30.06,NE,34,2.3,2.6,83,0.00,BKN,,0.43,51.0,WeatherDisplay:10.37,2013-04-20 23:19:00,
2013-04-20 19:24:00,59.0,54.2,30.06,NNE,13,4.6,4.6,84,0.00,BKN,,0.43,44.0,WeatherDisplay:10.37,2013-04-20 23:24:00,
2013-04-20 19:29:00,58.8,54.3,30.06,NNE,15,0.0,0.0,85,0.00,BKN,,0.43,42.0,WeatherDisplay:10.37,2013-04-20 23:29:00,
2013-04-20 19:34:00,58.7,54.2,30.07,NNE,13,1.1,1.1,85,0.00,BKN,,0.43,39.0,WeatherDisplay:10.37,2013-04-20 23:34:00,
2013-04-20 19:39:00,58.5,54.0,30.07,NNE,13,1.1,1.1,85,0.00,BKN,,0.43,30.0,WeatherDisplay:10.37,2013-04-20 23:39:00,
2013-04-20 19:44:00,58.1,53.9,30.07,NNE,13,0.0,0.0,86,0.00,BKN,,0.43,21.0,WeatherDisplay:10.37,2013-04-20 23:44:00,
2013-04-20 19:49:00,58.0,53.8,30.07,NNE,13,0.0,0.0,86,0.00,BKN,,0.43,14.0,WeatherDisplay:10.37,2013-04-20 23:49:00,
2013-04-20 19:54:00,57.7,53.9,30.07,NNE,13,0.0,0.0,87,0.00,BKN,,0.43,7.0,WeatherDisplay:10.37,2013-04-20 23:54:00,
2013-04-20 19:59:00,57.8,54.0,30.07,NNE,13,0.0,0.0,87,0.00,BKN,,0.43,5.0,WeatherDisplay:10.37,2013-04-20 23:59:00,
2013-04-20 20:04:00,57.9,54.1,30.08,NNE,13,0.0,0.0,87,0.00,BKN,,0.43,0.0,WeatherDisplay:10.37,2013-04-21 00:04:00,
2013-04-20 20:09:00,57.7,54.2,30.08,NNE,13,0.0,0.0,88,0.00,BKN,,0.43,0.0,WeatherDisplay:10.37,2013-04-21 00:09:00,
2013-04-20 20:14:00,57.3,53.8,30.08,NNE,13,1.4,1.4,88,0.00,BKN,,0.43,0.0,WeatherDisplay:10.37,2013-04-21 00:14:00,
2013-04-20 20:19:00,57.0,53.8,30.07,NNE,13,0.0,0.0,89,0.00,BKN,,0.43,0.0,WeatherDisplay:10.37,2013-04-21 00:19:00,
2013-04-20 20:24:00,56.9,53.7,30.07,NNE,13,0.0,0.0,89,0.00,BKN,,0.43,0.0,WeatherDisplay:10.37,2013-04-21 00:24:00,
2013-04-20 20:29:00,56.6,53.4,30.08,NNE,13,1.4,0.0,89,0.00,BKN,,0.43,0.0,WeatherDisplay:10.37,2013-04-21 00:29:00,
2013-04-20 20:34:00,56.3,53.4,30.08,NNE,13,1.1,1.1,90,0.00,BKN,,0.43,0.0,WeatherDisplay:10.37,2013-04-21 00:34:00,
2013-04-20 20:39:00,56.5,53.6,30.08,NNE,13,0.0,0.0,90,0.00,BKN,,0.43,0.0,WeatherDisplay:10.37,2013-04-21 00:39:00,
2013-04-20 20:44:00,56.5,53.6,30.09,NNE,13,1.1,0.0,90,0.00,BKN,,0.43,0.0,WeatherDisplay:10.37,2013-04-21 00:44:00,
2013-04-20 20:49:00,56.6,53.7,30.09,NNE,13,1.1,1.1,90,0.00,BKN,,0.43,0.0,WeatherDisplay:10.37,2013-04-21 00:49:00,
2013-04-20 20:54:00,56.5,53.3,30.09,NNE,13,2.3,2.3,89,0.00,BKN,,0.43,0.0,WeatherDisplay:10.37,2013-04-21 00:54:00,
2013-04-20 20:59:00,56.6,53.4,30.09,NNE,13,0.0,0.0,89,0.00,BKN,,0.43,0.0,WeatherDisplay:10.37,2013-04-21 00:59:00,
2013-04-20 21:04:00,56.4,53.2,30.09,NNE,14,0.0,0.0,89,0.00,BKN,,0.43,0.0,WeatherDisplay:10.37,2013-04-21 01:04:00,
2013-04-20 21:09:00,56.2,53.0,30.09,NNE,14,5.8,5.8,89,0.00,BKN,,0.43,0.0,WeatherDisplay:10.37,2013-04-21 01:09:00,
2013-04-20 21:14:00,55.9,52.7,30.10,NNE,14,1.1,0.0,89,0.00,BKN,,0.43,0.0,WeatherDisplay:10.37,2013-04-21 01:14:00,
2013-04-20 21:19:00,55.9,53.0,30.10,NNE,14,0.0,0.0,90,0.00,BKN,,0.43,0.0,WeatherDisplay:10.37,2013-04-21 01:19:00,
2013-04-20 21:24:00,55.7,52.8,30.10,NNE,14,1.4,0.0,90,0.00,BKN,,0.43,0.0,WeatherDisplay:10.37,2013-04-21 01:24:00,
2013-04-20 21:29:00,55.7,52.8,30.10,NNE,14,1.1,1.1,90,0.00,BKN,,0.43,0.0,WeatherDisplay:10.37,2013-04-21 01:29:00,
2013-04-20 21:34:00,55.4,52.5,30.10,NNE,14,1.1,0.0,90,0.00,BKN,,0.43,0.0,WeatherDisplay:10.37,2013-04-21 01:34:00,
2013-04-20 21:39:00,55.4,52.5,30.10,NNE,14,0.0,0.0,90,0.00,BKN,,0.43,0.0,WeatherDisplay:10.37,2013-04-21 01:39:00,
2013-04-20 21:44:00,55.1,52.2,30.11,NNE,14,2.8,2.8,90,0.00,BKN,,0.43,0.0,WeatherDisplay:10.37,2013-04-21 01:44:00,
2013-04-20 21:49:00,55.0,52.4,30.11,NNE,14,1.4,1.4,91,0.00,BKN,,0.43,0.0,WeatherDisplay:10.37,2013-04-21 01:49:00,
2013-04-20 21:54:00,54.9,52.3,30.11,NNE,14,4.6,4.6,91,0.00,BKN,,0.43,0.0,WeatherDisplay:10.37,2013-04-21 01:54:00,
2013-04-20 21:59:00,54.7,52.1,30.11,NNE,14,0.0,0.0,91,0.00,BKN,,0.43,0.0,WeatherDisplay:10.37,2013-04-21 01:59:00,
2013-04-20 22:04:00,54.6,52.0,30.11,NNE,14,0.0,0.0,91,0.00,BKN,,0.43,0.0,WeatherDisplay:10.37,2013-04-21 02:04:00,
2013-04-20 22:09:00,54.6,52.0,30.11,NNE,14,0.0,0.0,91,0.00,BKN,,0.43,0.0,WeatherDisplay:10.37,2013-04-21 02:09:00,
2013-04-20 22:14:00,54.8,52.5,30.12,NNE,14,0.0,0.0,92,0.00,BKN,,0.43,0.0,WeatherDisplay:10.37,2013-04-21 02:14:00,
2013-04-20 22:19:00,54.8,52.5,30.12,NNE,14,0.0,0.0,92,0.00,BKN,,0.43,0.0,WeatherDisplay:10.37,2013-04-21 02:19:00,
2013-04-20 22:24:00,54.4,51.8,30.12,NNE,14,0.0,0.0,91,0.00,BKN,,0.43,0.0,WeatherDisplay:10.37,2013-04-21 02:24:00,
2013-04-20 22:29:00,54.2,51.9,30.12,NNE,14,0.0,0.0,92,0.00,BKN,,0.43,0.0,WeatherDisplay:10.37,2013-04-21 02:29:00,
2013-04-20 22:34:00,54.4,52.1,30.12,NNE,14,0.0,0.0,92,0.00,BKN,,0.43,0.0,WeatherDisplay:10.37,2013-04-21 02:34:00,
2013-04-20 22:39:00,54.1,51.8,30.12,NNE,14,0.0,0.0,92,0.00,BKN,,0.43,0.0,WeatherDisplay:10.37,2013-04-21 02:39:00,
2013-04-20 22:44:00,54.1,51.8,30.12,NNE,14,0.0,0.0,92,0.00,BKN,,0.43,0.0,WeatherDisplay:10.37,2013-04-21 02:44:00,
2013-04-20 22:49:00,53.9,51.6,30.12,NNE,14,0.0,0.0,92,0.00,BKN,,0.43,0.0,WeatherDisplay:10.37,2013-04-21 02:49:00,
2013-04-20 22:54:00,53.7,51.7,30.12,NNE,14,0.0,0.0,93,0.00,BKN,,0.43,0.0,WeatherDisplay:10.37,2013-04-21 02:54:00,
2013-04-20 22:59:00,53.7,51.7,30.13,NNE,14,0.0,0.0,93,0.00,BKN,,0.43,0.0,WeatherDisplay:10.37,2013-04-21 02:59:00,
2013-04-20 23:04:00,53.8,51.8,30.13,NNE,14,0.0,0.0,93,0.00,BKN,,0.43,0.0,WeatherDisplay:10.37,2013-04-21 03:04:00,
2013-04-20 23:09:00,53.9,51.9,30.13,NNE,14,0.0,0.0,93,0.00,BKN,,0.43,0.0,WeatherDisplay:10.37,2013-04-21 03:09:00,
2013-04-20 23:14:00,53.6,51.6,30.14,NNE,14,0.0,0.0,93,0.00,BKN,,0.43,0.0,WeatherDisplay:10.37,2013-04-21 03:14:00,
2013-04-20 23:19:00,53.5,51.5,30.14,NNE,14,0.0,0.0,93,0.00,BKN,,0.43,0.0,WeatherDisplay:10.37,2013-04-21 03:19:00,
2013-04-20 23:24:00,53.4,51.4,30.14,NNE,14,0.0,0.0,93,0.00,BKN,,0.43,0.0,WeatherDisplay:10.37,2013-04-21 03:24:00,
2013-04-20 23:29:00,53.5,51.5,30.14,NNE,14,0.0,0.0,93,0.00,BKN,,0.43,0.0,WeatherDisplay:10.37,2013-04-21 03:29:00,
2013-04-20 23:34:00,53.3,51.3,30.14,NNE,14,0.0,0.0,93,0.00,BKN,,0.43,0.0,WeatherDisplay:10.37,2013-04-21 03:34:00,
2013-04-20 23:39:00,53.2,51.2,30.14,NNE,14,0.0,0.0,93,0.00,BKN,,0.43,0.0,WeatherDisplay:10.37,2013-04-21 03:39:00,
2013-04-20 23:44:00,53.1,51.1,30.13,NNE,14,0.0,0.0,93,0.00,BKN,,0.43,0.0,WeatherDisplay:10.37,2013-04-21 03:44:00,
2013-04-20 23:49:00,53.1,51.1,30.13,NNE,14,0.0,0.0,93,0.00,BKN,,0.43,0.0,WeatherDisplay:10.37,2013-04-21 03:49:00,
2013-04-20 23:54:00,52.8,50.8,30.13,NNE,14,0.0,0.0,93,0.00,BKN,,0.43,0.0,WeatherDisplay:10.37,2013-04-21 03:54:00,
2013-04-20 23:59:00,52.7,50.7,30.13,NNE,14,0.0,0.0,93,0.00,BKN,,0.43,0.0,WeatherDisplay:10.37,2013-04-21 03:59:00,